Kungur, Russia
Current Conditions -  °F | °C
As of 5:30 AM on Thursday 23 Oct 2014 (Local Time) from USPP Reporting Station
Moderate Snow Moderate Snow  
Wind Chill: 13°   Ceiling: 1800
Heat Index: 19°   Visibility: 1mi
Dew Point: 19°   Wind: 4mph
Humidity: 100%   Direction: 110°ESE
Pressure: 29.5"   Gusts: NA
Location:  57.43°N, 56.95°E
Report Text: USPP 230030Z 11002MPS 1600 SN BR OVC018 M07/M07 Q0999 21590531NOSIG RMK QFE739/0985 MOD ICE INC 600-2450
Loading
Personal Weather Stations






























Interactive Weather Map
Tropical Storm Tracking
New forecast layout! Learn more

10-Day Weather Forecast

Advertisements
Track Severe Weather on mobile